DKH8115 ZSLO-ZSPD
Flight info
| Callsign | DKH8115 |
|---|---|
| Flight time | N/A |
| Altitude | 31100 |
| Route | PV H22 DST B221 SHZ W58 XSY |
| Aircraft | A20N/M-SDE2E3FGHIRWXY/LB1 |
Departure
| Time | 2026-04-27 11:54 |
|---|---|
| Airport | Liancheng Guanzhishan Airport (ZSLO) |
Arrival
| Time | N/A |
|---|---|
| Airport | Shanghai Pudong International Airport (ZSPD) |
| Time | Latitude | Longitude | Altitude | Speed | Heading |
|---|---|---|---|---|---|
| 2026-04-27 11:02 | 25.68166 | 116.75349 | 1247 ft | 0 kts | 73° |
| 2026-04-27 11:48 | 25.68173 | 116.75366 | 1247 ft | 4 kts | 48° |
| 2026-04-27 11:48 | 25.68201 | 116.75350 | 1246 ft | 6 kts | 277° |
| 2026-04-27 11:48 | 25.68192 | 116.75298 | 1249 ft | 7 kts | 256° |
| 2026-04-27 11:48 | 25.68188 | 116.75230 | 1249 ft | 11 kts | 285° |
| 2026-04-27 11:49 | 25.68222 | 116.75133 | 1244 ft | 9 kts | 292° |
| 2026-04-27 11:49 | 25.68234 | 116.75101 | 1242 ft | 6 kts | 292° |
| 2026-04-27 11:49 | 25.68259 | 116.75034 | 1239 ft | 12 kts | 293° |
| 2026-04-27 11:49 | 25.68272 | 116.74934 | 1237 ft | 13 kts | 239° |
| 2026-04-27 11:50 | 25.68174 | 116.74876 | 1235 ft | 18 kts | 202° |
| 2026-04-27 11:50 | 25.68037 | 116.74815 | 1233 ft | 23 kts | 202° |
| 2026-04-27 11:50 | 25.67887 | 116.74746 | 1231 ft | 23 kts | 204° |
| 2026-04-27 11:50 | 25.67740 | 116.74678 | 1230 ft | 22 kts | 202° |
| 2026-04-27 11:51 | 25.67592 | 116.74610 | 1230 ft | 22 kts | 202° |
| 2026-04-27 11:51 | 25.67445 | 116.74543 | 1229 ft | 22 kts | 202° |
| 2026-04-27 11:51 | 25.67148 | 116.74407 | 1227 ft | 23 kts | 202° |
| 2026-04-27 11:52 | 25.67000 | 116.74339 | 1227 ft | 22 kts | 202° |
| 2026-04-27 11:52 | 25.66859 | 116.74275 | 1228 ft | 21 kts | 202° |
| 2026-04-27 11:52 | 25.66728 | 116.74215 | 1230 ft | 18 kts | 202° |
| 2026-04-27 11:52 | 25.66679 | 116.74204 | 1230 ft | 5 kts | 178° |
| 2026-04-27 11:53 | 25.66672 | 116.74195 | 1230 ft | 3 kts | 324° |
| 2026-04-27 11:53 | 25.66701 | 116.74203 | 1230 ft | 5 kts | 32° |
| 2026-04-27 11:53 | 25.66741 | 116.74222 | 1230 ft | 8 kts | 22° |
| 2026-04-27 11:53 | 25.66975 | 116.74329 | 1227 ft | 73 kts | 22° |
| 2026-04-27 11:54 | 25.67661 | 116.74641 | 1231 ft | 137 kts | 23° |
| 2026-04-27 11:54 | 25.68625 | 116.75084 | 1402 ft | 170 kts | 24° |
| 2026-04-27 11:54 | 25.69714 | 116.75594 | 1985 ft | 174 kts | 24° |
| 2026-04-27 11:54 | 25.70833 | 116.76113 | 2701 ft | 174 kts | 24° |
| 2026-04-27 11:55 | 25.71966 | 116.76635 | 3236 ft | 181 kts | 24° |
| 2026-04-27 11:55 | 25.73183 | 116.77196 | 3624 ft | 197 kts | 23° |
| 2026-04-27 11:55 | 25.74516 | 116.77808 | 4025 ft | 214 kts | 23° |
| 2026-04-27 11:55 | 25.75962 | 116.78471 | 4373 ft | 236 kts | 22° |
| 2026-04-27 11:56 | 25.77527 | 116.79186 | 5043 ft | 244 kts | 22° |
| 2026-04-27 11:56 | 25.79089 | 116.79900 | 5910 ft | 244 kts | 22° |
| 2026-04-27 11:56 | 25.80658 | 116.80618 | 6722 ft | 246 kts | 22° |
| 2026-04-27 11:56 | 25.82171 | 116.81536 | 7444 ft | 250 kts | 46° |
| 2026-04-27 11:57 | 25.83001 | 116.83173 | 8179 ft | 249 kts | 80° |
| 2026-04-27 11:57 | 25.83267 | 116.85105 | 8869 ft | 254 kts | 83° |
| 2026-04-27 11:57 | 25.83533 | 116.87075 | 9488 ft | 262 kts | 82° |
| 2026-04-27 11:57 | 25.83837 | 116.89082 | 10153 ft | 267 kts | 82° |
| 2026-04-27 11:58 | 25.84173 | 116.91137 | 10830 ft | 271 kts | 81° |
| 2026-04-27 11:58 | 25.84528 | 116.93257 | 11251 ft | 287 kts | 82° |
| 2026-04-27 11:58 | 25.84908 | 116.95515 | 11615 ft | 305 kts | 81° |
| 2026-04-27 11:58 | 25.85306 | 116.97871 | 11958 ft | 322 kts | 82° |
| 2026-04-27 11:59 | 25.85732 | 117.00396 | 12286 ft | 340 kts | 82° |
| 2026-04-27 11:59 | 25.86164 | 117.02958 | 12584 ft | 357 kts | 81° |
| 2026-04-27 11:59 | 25.86829 | 117.05733 | 12877 ft | 377 kts | 71° |
| 2026-04-27 11:59 | 25.88033 | 117.08405 | 13158 ft | 395 kts | 58° |
| 2026-04-27 12:00 | 25.89638 | 117.10937 | 13436 ft | 411 kts | 54° |
| 2026-04-27 12:00 | 25.91407 | 117.13549 | 13686 ft | 426 kts | 53° |
| 2026-04-27 12:00 | 25.93231 | 117.16238 | 13942 ft | 439 kts | 53° |
| 2026-04-27 12:00 | 25.95062 | 117.18973 | 14368 ft | 446 kts | 54° |
| 2026-04-27 12:01 | 25.96921 | 117.21783 | 14905 ft | 450 kts | 54° |
| 2026-04-27 12:01 | 25.98799 | 117.24639 | 15470 ft | 453 kts | 53° |
| 2026-04-27 12:01 | 26.00563 | 117.27200 | 15971 ft | 455 kts | 51° |
| 2026-04-27 12:01 | 26.02612 | 117.29955 | 16519 ft | 457 kts | 49° |
| 2026-04-27 12:02 | 26.04646 | 117.32642 | 17012 ft | 460 kts | 49° |
| 2026-04-27 12:02 | 26.06740 | 117.35398 | 17503 ft | 464 kts | 49° |
| 2026-04-27 12:02 | 26.08814 | 117.38127 | 17953 ft | 467 kts | 49° |
| 2026-04-27 12:02 | 26.10059 | 117.39768 | 18231 ft | 469 kts | 49° |
| 2026-04-27 12:03 | 26.11348 | 117.41464 | 18524 ft | 470 kts | 48° |
| 2026-04-27 12:03 | 26.15565 | 117.47002 | 19401 ft | 475 kts | 48° |
| 2026-04-27 12:03 | 26.18235 | 117.50524 | 19931 ft | 478 kts | 48° |
| 2026-04-27 12:04 | 26.19731 | 117.52503 | 20228 ft | 480 kts | 48° |
| 2026-04-27 12:04 | 26.21914 | 117.55395 | 20628 ft | 482 kts | 47° |
| 2026-04-27 12:04 | 26.24075 | 117.58261 | 21041 ft | 485 kts | 48° |
| 2026-04-27 12:04 | 26.26982 | 117.62119 | 21605 ft | 487 kts | 47° |
| 2026-04-27 12:05 | 26.28445 | 117.64063 | 21872 ft | 488 kts | 47° |
| 2026-04-27 12:05 | 26.30257 | 117.66473 | 22188 ft | 490 kts | 48° |
| 2026-04-27 12:05 | 26.31477 | 117.68103 | 22401 ft | 491 kts | 48° |
| 2026-04-27 12:06 | 26.36155 | 117.74357 | 23162 ft | 496 kts | 48° |
| 2026-04-27 12:06 | 26.38693 | 117.77742 | 23564 ft | 497 kts | 47° |
| 2026-04-27 12:06 | 26.40921 | 117.80710 | 24067 ft | 495 kts | 47° |
| 2026-04-27 12:06 | 26.43134 | 117.83647 | 24620 ft | 492 kts | 47° |
| 2026-04-27 12:07 | 26.45334 | 117.86563 | 25147 ft | 489 kts | 47° |
| 2026-04-27 12:07 | 26.47529 | 117.89471 | 25627 ft | 488 kts | 47° |
| 2026-04-27 12:07 | 26.49727 | 117.92387 | 26085 ft | 487 kts | 47° |
| 2026-04-27 12:07 | 26.51911 | 117.95336 | 26530 ft | 487 kts | 49° |
| 2026-04-27 12:08 | 26.53922 | 117.98415 | 26982 ft | 488 kts | 53° |
| 2026-04-27 12:08 | 26.55742 | 118.01658 | 27459 ft | 488 kts | 57° |
| 2026-04-27 12:08 | 26.57350 | 118.04981 | 27923 ft | 488 kts | 59° |
| 2026-04-27 12:08 | 26.58918 | 118.08370 | 28341 ft | 487 kts | 60° |
| 2026-04-27 12:09 | 26.60466 | 118.11752 | 28752 ft | 487 kts | 60° |
| 2026-04-27 12:09 | 26.62019 | 118.15145 | 29163 ft | 486 kts | 60° |
| 2026-04-27 12:09 | 26.63562 | 118.18512 | 29555 ft | 485 kts | 60° |
| 2026-04-27 12:09 | 26.65103 | 118.21867 | 29860 ft | 486 kts | 60° |
| 2026-04-27 12:10 | 26.66671 | 118.25273 | 30109 ft | 488 kts | 60° |
| 2026-04-27 12:10 | 26.68229 | 118.28658 | 30347 ft | 490 kts | 60° |
| 2026-04-27 12:10 | 26.69798 | 118.32069 | 30613 ft | 491 kts | 60° |
| 2026-04-27 12:10 | 26.71368 | 118.35486 | 30882 ft | 491 kts | 60° |
| 2026-04-27 12:11 | 26.72805 | 118.38617 | 31040 ft | 493 kts | 60° |
| 2026-04-27 12:11 | 26.75950 | 118.45473 | 31069 ft | 495 kts | 60° |
| 2026-04-27 12:12 | 26.79112 | 118.52375 | 31083 ft | 495 kts | 60° |
| 2026-04-27 12:12 | 26.82260 | 118.59258 | 31106 ft | 495 kts | 60° |
| 2026-04-27 12:13 | 26.84901 | 118.65048 | 31114 ft | 495 kts | 60° |
| 2026-04-27 12:13 | 26.87637 | 118.71072 | 31132 ft | 495 kts | 60° |